Time;durP1;ratioP1;P1;durP2;ratioP2;P2;SDS_P1;SDS_P2;PMS_P1;PMS_P2;Temp;Humidity;BMP_temperature;BMP_pressure;BME280_temperature;BME280_humidity;BME280_pressure;Samples;Min_cycle;Max_cycle;Signal;HPM_P1;HPM_P2
2023/05/21 00:01:38;;;;;;;15.77;8.50;;;;;;;-145.69;100.00;52384.97;5076397;28;20201;-82
2023/05/21 00:04:06;;;;;;;13.97;8.83;;;;;;;-145.69;100.00;52384.97;5076196;28;20713;-82
2023/05/21 00:06:34;;;;;;;14.63;9.87;;;;;;;-145.69;100.00;52383.00;5076390;28;20199;-82
2023/05/21 00:09:01;;;;;;;17.63;9.07;;;;;;;-145.69;100.00;52377.06;5076089;28;20684;-82
2023/05/21 00:11:27;;;;;;;16.93;9.57;;;;;;;-145.69;100.00;52396.84;5075966;28;20669;-81
2023/05/21 00:13:55;;;;;;;12.73;7.97;;;;;;;-145.69;100.00;52396.84;5076074;28;20535;-81
2023/05/21 00:16:22;;;;;;;14.37;8.93;;;;;;;-145.69;100.00;52400.81;5075939;28;20225;-82
2023/05/21 00:18:49;;;;;;;18.40;9.93;;;;;;;-145.69;100.00;52381.00;5075994;28;20222;-82
2023/05/21 00:21:16;;;;;;;14.43;9.20;;;;;;;-145.69;100.00;52394.88;5068923;28;20278;-82
2023/05/21 00:23:44;;;;;;;13.90;8.90;;;;;;;-145.69;100.00;52396.84;5055577;28;20222;-82
2023/05/21 00:26:10;;;;;;;19.73;10.80;;;;;;;-145.69;100.00;52400.81;5068515;28;20202;-82
2023/05/21 00:28:37;;;;;;;17.53;10.47;;;;;;;-145.69;100.00;52386.97;5075964;28;20203;-82
2023/05/21 00:31:05;;;;;;;18.33;9.88;;;;;;;-145.69;100.00;52392.91;5075703;28;20201;-82
2023/05/21 00:33:31;;;;;;;18.00;9.97;;;;;;;-145.69;100.00;52381.00;5075791;28;20209;-81
2023/05/21 00:36:02;;;;;;;18.10;10.23;;;;;;;-145.69;100.00;52400.81;5075788;28;20238;-81
2023/05/21 00:38:28;;;;;;;13.97;9.57;;;;;;;-145.69;100.00;52452.31;5075772;28;20203;-81
2023/05/21 00:40:55;;;;;;;15.67;9.27;;;;;;;-145.69;100.00;52369.13;5075442;28;20665;-82
2023/05/21 00:43:25;;;;;;;23.00;9.77;;;;;;;-145.69;100.00;52402.78;5065079;28;20199;-82
2023/05/21 00:45:52;;;;;;;18.13;10.77;;;;;;;-145.69;100.00;52388.94;5035747;28;20290;-81
2023/05/21 00:48:20;;;;;;;19.43;11.00;;;;;;;-145.69;100.00;52390.91;5035268;28;20639;-82
2023/05/21 00:50:48;;;;;;;22.27;11.02;;;;;;;-145.69;100.00;52388.94;5037043;28;20215;-81
2023/05/21 00:53:18;;;;;;;16.83;10.10;;;;;;;-145.69;100.00;52383.00;5075452;28;20195;-81
2023/05/21 00:55:44;;;;;;;16.47;9.93;;;;;;;-145.69;100.00;52402.78;5075204;28;20547;-81
2023/05/21 00:58:11;;;;;;;18.97;10.57;;;;;;;-145.69;100.00;52392.91;5075137;28;20278;-81
2023/05/21 01:00:39;;;;;;;18.03;10.63;;;;;;;-145.69;100.00;52400.81;5075161;28;20198;-81
2023/05/21 01:03:06;;;;;;;16.10;10.33;;;;;;;-145.69;100.00;52398.84;5075223;28;20276;-81
2023/05/21 01:05:33;;;;;;;17.13;11.23;;;;;;;-145.69;100.00;52383.00;5075025;28;20653;-81
2023/05/21 01:08:00;;;;;;;15.32;9.73;;;;;;;-145.69;100.00;52365.16;5074036;28;20203;-82
2023/05/21 01:10:28;;;;;;;18.60;11.32;;;;;;;-145.69;100.00;52434.47;5075010;28;20199;-81
2023/05/21 01:12:56;;;;;;;17.93;10.57;;;;;;;-145.69;100.00;52396.84;5075070;28;20198;-82
2023/05/21 01:15:23;;;;;;;20.83;10.10;;;;;;;-145.69;100.00;52384.97;5074754;28;20199;-81
2023/05/21 01:17:51;;;;;;;16.63;10.40;;;;;;;-145.69;100.00;52416.66;5074903;28;20227;-82
2023/05/21 01:20:19;;;;;;;18.80;11.10;;;;;;;-145.69;100.00;52418.63;5074973;28;20576;-81
2023/05/21 01:22:54;;;;;;;17.80;11.07;;;;;;;-145.69;100.00;52394.88;5058029;28;20302;-81
2023/05/21 01:25:22;;;;;;;20.33;12.07;;;;;;;-145.69;100.00;52384.97;5054781;28;20210;-81
2023/05/21 01:27:48;;;;;;;24.10;11.83;;;;;;;-145.69;100.00;52416.66;5054492;28;20290;-82
2023/05/21 01:30:17;;;;;;;19.27;11.43;;;;;;;-145.69;100.00;52420.63;5054845;28;20210;-82
2023/05/21 01:32:48;;;;;;;21.33;11.40;;;;;;;-145.69;100.00;52396.84;5054631;28;20221;-82
2023/05/21 01:35:21;;;;;;;16.17;10.98;;;;;;;-145.69;100.00;52386.97;5054678;28;20204;-82
2023/05/21 01:37:54;;;;;;;19.03;11.27;;;;;;;-145.69;100.00;52400.81;5055954;28;20227;-83
2023/05/21 01:40:25;;;;;;;17.97;11.17;;;;;;;-145.69;100.00;52386.97;5054439;28;20253;-82
2023/05/21 01:42:52;;;;;;;19.10;10.77;;;;;;;-145.69;100.00;52408.75;5054226;28;20210;-83
2023/05/21 01:45:22;;;;;;;16.80;10.63;;;;;;;-145.69;100.00;52416.66;5058524;28;20191;-82
2023/05/21 01:47:51;;;;;;;16.20;10.97;;;;;;;-145.69;100.00;52383.00;5070021;28;20199;-82
2023/05/21 01:50:18;;;;;;;17.27;10.33;;;;;;;-145.69;100.00;52416.66;5054071;28;20254;-83
2023/05/21 01:52:51;;;;;;;18.23;11.40;;;;;;;-145.69;100.00;52416.66;5054075;28;20658;-83
2023/05/21 01:55:23;;;;;;;17.80;11.23;;;;;;;-145.69;100.00;52398.84;5054520;28;20302;-82
2023/05/21 01:57:52;;;;;;;19.13;10.47;;;;;;;-145.69;100.00;52394.88;5057157;28;20688;-83
2023/05/21 02:00:27;;;;;;;15.70;10.10;;;;;;;-145.69;100.00;52400.81;5074437;28;20212;-82
2023/05/21 02:02:53;;;;;;;18.70;10.60;;;;;;;-145.69;100.00;52430.53;5074101;28;20292;-81
2023/05/21 02:05:24;;;;;;;20.17;11.13;;;;;;;-145.69;100.00;52408.75;5073928;28;20206;-81
2023/05/21 02:07:52;;;;;;;23.10;11.27;;;;;;;-145.69;100.00;52414.69;5066626;28;20291;-82
2023/05/21 02:10:21;;;;;;;19.93;11.93;;;;;;;-145.69;100.00;52444.38;5052569;28;20207;-82
2023/05/21 02:12:53;;;;;;;19.13;11.73;;;;;;;-145.69;100.00;52400.81;5053928;28;20654;-83
2023/05/21 02:15:20;;;;;;;19.67;11.67;;;;;;;-145.69;100.00;52458.25;5056556;28;20283;-81
2023/05/21 02:17:47;;;;;;;22.07;11.87;;;;;;;-145.69;100.00;52394.88;5073264;28;20249;-81
2023/05/21 02:20:13;;;;;;;20.00;11.97;;;;;;;-145.69;100.00;52412.69;5073541;28;20289;-81
2023/05/21 02:22:41;;;;;;;22.03;13.03;;;;;;;-145.69;100.00;52408.75;5073860;28;20654;-81
2023/05/21 02:25:09;;;;;;;21.93;11.43;;;;;;;-145.69;100.00;52410.72;5073820;28;20214;-82
2023/05/21 02:27:36;;;;;;;20.43;11.87;;;;;;;-145.69;100.00;52430.53;5072364;28;20202;-81
2023/05/21 02:30:05;;;;;;;19.63;12.30;;;;;;;-145.69;100.00;52402.78;5073578;28;20199;-83
2023/05/21 02:32:32;;;;;;;20.73;11.43;;;;;;;-145.69;100.00;52430.53;5073396;28;20206;-82
2023/05/21 02:34:59;;;;;;;17.80;10.77;;;;;;;-145.69;100.00;52432.50;5073740;28;20285;-82
2023/05/21 02:37:27;;;;;;;24.30;11.83;;;;;;;-145.69;100.00;52418.63;5073552;28;20276;-82
2023/05/21 02:39:54;;;;;;;17.50;11.33;;;;;;;-145.69;100.00;52418.63;5073620;28;20268;-82
2023/05/21 02:42:22;;;;;;;19.53;12.13;;;;;;;-145.69;100.00;52404.78;5073407;28;20260;-82
2023/05/21 02:44:49;;;;;;;21.13;12.30;;;;;;;-145.69;100.00;52404.78;5073175;28;20203;-82
2023/05/21 02:47:17;;;;;;;19.97;11.70;;;;;;;-145.69;100.00;52428.53;5072431;28;20665;-81
2023/05/21 02:49:43;;;;;;;24.83;11.87;;;;;;;-145.69;100.00;52418.63;5061175;28;20250;-81
2023/05/21 02:52:10;;;;;;;22.60;12.87;;;;;;;-145.69;100.00;52414.69;5053130;28;20217;-81
2023/05/21 02:54:37;;;;;;;25.10;12.80;;;;;;;-145.69;100.00;52460.22;5053185;28;20196;-82
2023/05/21 02:57:03;;;;;;;18.63;10.90;;;;;;;-145.69;100.00;52432.50;5053007;28;20579;-82
2023/05/21 02:59:30;;;;;;;22.03;12.30;;;;;;;-145.69;100.00;52365.16;5052876;28;20195;-81
2023/05/21 03:01:57;;;;;;;18.77;12.33;;;;;;;-145.69;100.00;52434.47;5053225;28;20203;-81
2023/05/21 03:04:27;;;;;;;20.57;11.57;;;;;;;-145.69;100.00;52424.59;5052843;28;20195;-81
2023/05/21 03:06:54;;;;;;;20.30;11.20;;;;;;;-145.69;100.00;52420.63;5053283;28;20637;-81
2023/05/21 03:09:20;;;;;;;21.33;12.60;;;;;;;-145.69;100.00;52430.53;5053134;28;20206;-82
2023/05/21 03:11:47;;;;;;;24.97;12.63;;;;;;;-145.69;100.00;52426.56;5052976;28;20215;-81
2023/05/21 03:14:15;;;;;;;23.17;14.43;;;;;;;-145.69;100.00;52400.81;5052830;28;20272;-80
2023/05/21 03:16:42;;;;;;;20.73;13.37;;;;;;;-145.69;100.00;52438.44;5067652;28;20194;-82
2023/05/21 03:19:12;;;;;;;24.33;13.43;;;;;;;-145.69;100.00;52472.13;5072926;28;20214;-82
2023/05/21 03:21:40;;;;;;;23.47;13.23;;;;;;;-145.69;100.00;52416.66;5072893;28;20661;-82
2023/05/21 03:24:08;;;;;;;24.70;14.80;;;;;;;-145.69;100.00;52460.22;5072569;28;20570;-82
2023/05/21 03:26:35;;;;;;;28.83;14.50;;;;;;;-145.69;100.00;52420.63;5072604;28;20198;-82
2023/05/21 03:29:01;;;;;;;25.57;14.37;;;;;;;-145.69;100.00;52434.47;5072946;28;20444;-83
2023/05/21 03:31:28;;;;;;;24.13;13.80;;;;;;;-145.69;100.00;52448.34;5074183;28;20217;-82
2023/05/21 03:33:54;;;;;;;25.80;13.17;;;;;;;-145.69;100.00;52420.63;5076840;28;20203;-81
2023/05/21 03:36:21;;;;;;;21.30;12.90;;;;;;;-145.69;100.00;52424.59;5076981;28;20222;-82
2023/05/21 03:38:49;;;;;;;23.63;14.37;;;;;;;-145.69;100.00;52456.28;5076752;28;20238;-82
2023/05/21 03:41:15;;;;;;;26.30;15.10;;;;;;;-145.69;100.00;52416.66;5076620;28;20740;-82
2023/05/21 03:43:42;;;;;;;26.37;14.23;;;;;;;-145.69;100.00;52458.25;5076834;28;20213;-81
2023/05/21 03:46:08;;;;;;;26.43;14.67;;;;;;;-145.69;100.00;52418.63;5066155;28;20195;-81
2023/05/21 03:48:35;;;;;;;23.63;14.20;;;;;;;-145.69;100.00;52430.53;5061398;28;20233;-81
2023/05/21 03:51:01;;;;;;;25.47;14.13;;;;;;;-145.69;100.00;52416.66;5067626;28;20218;-81
2023/05/21 03:53:28;;;;;;;23.00;13.87;;;;;;;-145.69;100.00;52404.78;5056555;28;20214;-82
2023/05/21 03:55:55;;;;;;;21.00;12.53;;;;;;;-145.69;100.00;52420.63;5056686;28;20195;-82
2023/05/21 03:58:22;;;;;;;24.57;14.77;;;;;;;-145.69;100.00;52436.47;5056039;28;20223;-82
2023/05/21 04:00:49;;;;;;;24.80;14.53;;;;;;;-145.69;100.00;52430.53;5056736;28;20192;-82
2023/05/21 04:03:16;;;;;;;24.50;13.53;;;;;;;-145.69;100.00;52446.38;5056427;28;20206;-82
2023/05/21 04:05:43;;;;;;;23.87;13.47;;;;;;;-145.69;100.00;52446.38;5056369;28;20615;-82
2023/05/21 04:08:10;;;;;;;23.70;13.63;;;;;;;-145.69;100.00;52446.38;5056127;28;20206;-82
2023/05/21 04:10:37;;;;;;;27.67;14.10;;;;;;;-145.69;100.00;52428.53;5056057;28;20199;-82
2023/05/21 04:13:05;;;;;;;25.03;14.93;;;;;;;-145.69;100.00;52466.16;5056365;28;20199;-82
2023/05/21 04:15:34;;;;;;;26.17;13.80;;;;;;;-145.69;100.00;52456.28;5058394;28;20261;-82
2023/05/21 04:18:00;;;;;;;26.50;14.43;;;;;;;-145.69;100.00;52432.50;5075626;28;20268;-81
2023/05/21 04:20:27;;;;;;;24.43;13.13;;;;;;;-145.69;100.00;52426.56;5075892;28;20209;-82
2023/05/21 04:22:53;;;;;;;24.37;13.93;;;;;;;-145.69;100.00;52452.31;5075882;28;20234;-83
2023/05/21 04:25:20;;;;;;;22.40;13.37;;;;;;;-145.69;100.00;52440.44;5076094;28;20669;-82
2023/05/21 04:27:47;;;;;;;23.10;12.87;;;;;;;-145.69;100.00;52442.41;5076276;28;20207;-82
2023/05/21 04:30:15;;;;;;;19.03;12.03;;;;;;;-145.69;100.00;52424.59;5075929;28;20203;-82
2023/05/21 04:32:44;;;;;;;23.27;12.70;;;;;;;-145.69;100.00;52424.59;5075886;28;20681;-82
2023/05/21 04:35:11;;;;;;;22.57;13.63;;;;;;;-145.69;100.00;52448.34;5076135;28;20204;-83
2023/05/21 04:37:40;;;;;;;25.10;12.67;;;;;;;-145.69;100.00;52476.06;5075578;28;20230;-83
2023/05/21 04:40:08;;;;;;;20.83;13.17;;;;;;;-145.69;100.00;52428.53;5075911;28;20218;-82
2023/05/21 04:42:35;;;;;;;26.17;14.07;;;;;;;-145.69;100.00;52412.69;5075533;28;20675;-82
2023/05/21 04:45:02;;;;;;;20.60;12.63;;;;;;;-145.69;100.00;52410.72;5075718;28;20195;-83
2023/05/21 04:47:34;;;;;;;23.07;13.43;;;;;;;-145.69;100.00;52414.69;5056786;28;20206;-82
2023/05/21 04:50:00;;;;;;;20.87;12.30;;;;;;;-145.69;100.00;52408.75;5055450;28;20640;-82
2023/05/21 04:52:27;;;;;;;17.20;11.33;;;;;;;-145.69;100.00;52422.59;5055356;28;20493;-82
2023/05/21 04:54:54;;;;;;;18.13;11.97;;;;;;;-145.69;100.00;52412.69;5052366;28;20642;-82
2023/05/21 04:57:23;;;;;;;21.87;12.37;;;;;;;-145.69;100.00;52452.31;5035608;28;20220;-82
2023/05/21 04:59:49;;;;;;;22.13;12.98;;;;;;;-145.69;100.00;52428.53;5035508;28;20196;-82
2023/05/21 05:02:16;;;;;;;19.65;12.15;;;;;;;-145.69;100.00;52410.72;5035115;28;20574;-81
2023/05/21 05:04:44;;;;;;;18.80;11.52;;;;;;;-145.69;100.00;52398.84;5035798;28;20211;-82
2023/05/21 05:07:10;;;;;;;21.13;12.35;;;;;;;-145.69;100.00;52406.75;5035344;28;20204;-82
2023/05/21 05:09:37;;;;;;;23.77;13.63;;;;;;;-145.69;100.00;52404.78;5035132;28;20202;-83
2023/05/21 05:12:04;;;;;;;21.63;13.18;;;;;;;-145.69;100.00;52388.94;5035362;28;20200;-83
2023/05/21 05:14:31;;;;;;;18.83;11.88;;;;;;;-145.69;100.00;52396.84;5035247;28;20200;-83
2023/05/21 05:16:59;;;;;;;20.40;11.75;;;;;;;-145.69;100.00;52388.94;5063070;28;20207;-82
2023/05/21 05:19:26;;;;;;;17.10;11.75;;;;;;;-145.69;100.00;52381.00;5075054;28;20585;-82
2023/05/21 05:21:56;;;;;;;19.00;11.57;;;;;;;-145.69;100.00;52388.94;5074834;28;20207;-82
2023/05/21 05:24:23;;;;;;;15.13;10.20;;;;;;;-145.69;100.00;52400.81;5073274;28;20191;-82
2023/05/21 05:26:49;;;;;;;17.35;10.80;;;;;;;-145.69;100.00;52369.13;5074873;28;20195;-83
2023/05/21 05:29:16;;;;;;;18.63;10.85;;;;;;;-145.69;100.00;52371.13;5074741;28;20206;-83
2023/05/21 05:31:42;;;;;;;14.35;9.95;;;;;;;-145.69;100.00;52398.84;5074535;28;20199;-82
2023/05/21 05:34:09;;;;;;;14.00;9.73;;;;;;;-145.69;100.00;52396.84;5074755;28;20568;-83
2023/05/21 05:36:35;;;;;;;14.00;9.45;;;;;;;-145.69;100.00;52381.00;5074559;28;20234;-83
2023/05/21 05:39:03;;;;;;;13.95;9.60;;;;;;;-145.69;100.00;52406.75;5074638;28;20230;-83
2023/05/21 05:41:30;;;;;;;15.50;9.93;;;;;;;-145.69;100.00;52373.09;5074650;28;20225;-82
2023/05/21 05:43:56;;;;;;;16.60;10.48;;;;;;;-145.69;100.00;52394.88;5074346;28;20226;-83
2023/05/21 05:46:24;;;;;;;14.60;10.02;;;;;;;-145.69;100.00;52349.31;5066224;28;20208;-83
2023/05/21 05:48:50;;;;;;;15.70;9.93;;;;;;;-145.69;100.00;52353.28;5054022;28;20235;-83
2023/05/21 05:51:17;;;;;;;13.95;9.65;;;;;;;-145.69;100.00;52373.09;5054447;28;20582;-83
2023/05/21 05:53:43;;;;;;;16.63;9.75;;;;;;;-145.69;100.00;52331.50;5053672;28;20609;-82
2023/05/21 05:56:11;;;;;;;16.95;9.77;;;;;;;-145.69;100.00;52349.31;5072934;28;20201;-82
2023/05/21 05:58:37;;;;;;;15.65;9.52;;;;;;;-145.69;100.00;52351.31;5074080;28;20233;-83
2023/05/21 06:01:04;;;;;;;13.40;8.98;;;;;;;-145.69;100.00;52365.16;5074071;28;20535;-83
2023/05/21 06:03:30;;;;;;;16.25;10.32;;;;;;;-145.69;100.00;52341.41;5074208;28;20195;-83
2023/05/21 06:05:57;;;;;;;16.83;9.77;;;;;;;-145.69;100.00;52377.06;5074053;28;20377;-83
2023/05/21 06:08:24;;;;;;;15.65;9.27;;;;;;;-145.69;100.00;52365.16;5067339;28;20196;-83
2023/05/21 06:10:50;;;;;;;15.63;10.27;;;;;;;-145.69;100.00;52373.09;5054067;28;20199;-83
2023/05/21 06:13:18;;;;;;;16.13;10.38;;;;;;;-145.69;100.00;52357.25;5053700;28;20203;-83
2023/05/21 06:15:44;;;;;;;19.73;10.68;;;;;;;-145.69;100.00;52337.44;5054001;28;20206;-83
2023/05/21 06:18:11;;;;;;;14.63;10.02;;;;;;;-145.69;100.00;52349.31;5053747;28;20238;-83
2023/05/21 06:20:41;;;;;;;14.05;10.13;;;;;;;-145.69;100.00;52384.97;5053486;28;20203;-83
2023/05/21 06:23:07;;;;;;;21.08;10.65;;;;;;;-145.69;100.00;52377.06;5053672;28;20257;-83
2023/05/21 06:25:34;;;;;;;18.42;11.13;;;;;;;-145.69;100.00;52345.38;5053648;28;20199;-83
2023/05/21 06:28:00;;;;;;;16.33;10.60;;;;;;;-145.69;100.00;52301.81;5053629;28;20235;-83
2023/05/21 06:30:28;;;;;;;18.15;10.00;;;;;;;-145.69;100.00;52355.28;5053569;28;20658;-83
2023/05/21 06:32:56;;;;;;;14.50;10.45;;;;;;;-145.69;100.00;52343.38;5053653;28;20203;-83
2023/05/21 06:35:22;;;;;;;21.33;10.65;;;;;;;-145.69;100.00;52309.72;5053870;28;20214;-83
2023/05/21 06:37:49;;;;;;;16.58;9.95;;;;;;;-145.69;100.00;52319.63;5053562;28;20231;-83
2023/05/21 06:40:15;;;;;;;14.45;10.02;;;;;;;-145.69;100.00;52345.38;5053384;28;20215;-83
2023/05/21 06:42:42;;;;;;;14.15;10.38;;;;;;;-145.69;100.00;52319.63;5060351;28;20210;-83
2023/05/21 06:45:09;;;;;;;16.10;10.43;;;;;;;-145.69;100.00;52345.38;5073620;28;20289;-84
2023/05/21 06:47:37;;;;;;;14.80;10.38;;;;;;;-145.69;100.00;52325.56;5073454;28;20246;-84
2023/05/21 06:50:04;;;;;;;15.02;10.52;;;;;;;-145.69;100.00;52309.72;5073357;28;20233;-83
2023/05/21 06:52:31;;;;;;;17.35;10.45;;;;;;;-145.69;100.00;52291.91;5073230;28;20207;-83
2023/05/21 06:54:58;;;;;;;16.60;10.13;;;;;;;-145.69;100.00;52295.84;5073150;28;20657;-84
2023/05/21 06:57:24;;;;;;;16.00;9.23;;;;;;;-145.69;100.00;52303.78;5073073;28;20195;-83
2023/05/21 06:59:51;;;;;;;16.17;8.88;;;;;;;-145.69;100.00;52270.13;5073231;28;20229;-83
2023/05/21 07:02:17;;;;;;;13.70;9.55;;;;;;;-145.69;100.00;52299.81;5073117;28;20289;-85
2023/05/21 07:04:45;;;;;;;15.52;10.13;;;;;;;-145.69;100.00;52297.84;5067996;28;20721;-84
2023/05/21 07:07:12;;;;;;;14.55;9.55;;;;;;;-145.69;100.00;52264.16;5032748;28;20744;-84
2023/05/21 07:09:38;;;;;;;13.05;8.93;;;;;;;-145.69;100.00;52289.91;5049081;28;20210;-84
2023/05/21 07:12:05;;;;;;;15.40;8.98;;;;;;;-145.69;100.00;52272.09;5053054;28;20282;-84
2023/05/21 07:14:32;;;;;;;14.40;9.40;;;;;;;-145.69;100.00;52289.91;5052971;28;20200;-84
2023/05/21 07:16:58;;;;;;;14.38;9.43;;;;;;;-145.69;100.00;52238.44;5053002;28;20200;-84
2023/05/21 07:19:25;;;;;;;14.80;9.18;;;;;;;-145.69;100.00;52266.16;5052794;28;20235;-84
2023/05/21 07:21:53;;;;;;;13.38;10.20;;;;;;;-145.69;100.00;52270.13;5052737;28;20200;-84
2023/05/21 07:24:19;;;;;;;16.42;10.73;;;;;;;-145.69;100.00;52258.22;5052787;28;20196;-84
2023/05/21 07:26:46;;;;;;;16.52;9.38;;;;;;;-145.69;100.00;52234.47;5052835;28;20226;-83
2023/05/21 07:29:13;;;;;;;17.08;10.57;;;;;;;-145.69;95.83;52230.50;5052748;28;20566;-85
2023/05/21 07:31:39;;;;;;;17.33;10.48;;;;;;;-145.69;94.71;52260.22;5052774;28;20234;-83
2023/05/21 07:34:06;;;;;;;13.48;8.88;;;;;;;-145.69;98.00;52256.25;5052716;28;20192;-84
2023/05/21 07:36:33;;;;;;;15.35;10.13;;;;;;;-145.69;100.00;52246.34;5052772;28;20206;-83
2023/05/21 07:39:01;;;;;;;15.30;9.40;;;;;;;-145.69;96.27;52256.25;5060542;28;20608;-83
2023/05/21 07:41:28;;;;;;;12.60;8.45;;;;;;;-145.69;96.98;52254.28;5059901;28;20282;-84
2023/05/21 07:43:54;;;;;;;20.10;9.93;;;;;;;-145.69;100.00;52228.53;5052607;28;20208;-83
2023/05/21 07:46:21;;;;;;;16.15;8.50;;;;;;;-145.69;100.00;52246.34;5032578;28;20204;-83
2023/05/21 07:48:48;;;;;;;15.30;9.52;;;;;;;-145.69;100.00;52258.22;5032507;28;20235;-83
2023/05/21 07:51:15;;;;;;;16.02;9.82;;;;;;;-145.69;100.00;52236.44;5036568;28;20198;-83
2023/05/21 07:53:42;;;;;;;12.98;8.57;;;;;;;-145.69;98.60;52234.47;5052760;28;20204;-84
2023/05/21 07:56:09;;;;;;;17.70;9.30;;;;;;;-145.69;95.40;52228.53;5052708;28;20199;-85
2023/05/21 07:58:36;;;;;;;14.20;8.93;;;;;;;-145.69;96.12;52240.41;5052482;28;20309;-84
2023/05/21 08:01:03;;;;;;;22.58;9.65;;;;;;;-145.69;98.63;52248.34;5052630;28;20211;-83
2023/05/21 08:03:29;;;;;;;16.70;9.68;;;;;;;-145.69;100.00;52230.50;5052412;28;20291;-83
2023/05/21 08:05:56;;;;;;;12.65;8.90;;;;;;;-145.69;99.03;52210.72;5052686;28;20206;-84
2023/05/21 08:08:23;;;;;;;12.60;8.68;;;;;;;-145.69;96.90;52204.75;5054643;28;20209;-83
2023/05/21 08:10:49;;;;;;;15.27;9.40;;;;;;;-145.69;97.89;52216.66;5071963;28;20225;-84
2023/05/21 08:13:17;;;;;;;16.30;9.38;;;;;;;-145.69;100.00;52190.91;5072060;28;20592;-82
2023/05/21 08:15:44;;;;;;;14.88;10.50;;;;;;;-145.69;98.98;52222.59;5064914;28;20203;-83
2023/05/21 08:18:11;;;;;;;13.93;9.45;;;;;;;-145.69;99.29;52230.50;5054699;28;20294;-83
2023/05/21 08:20:38;;;;;;;11.98;8.85;;;;;;;-145.69;96.97;52218.63;5056211;28;20203;-83
2023/05/21 08:23:04;;;;;;;17.00;9.93;;;;;;;-145.69;96.60;52216.66;5055839;28;20227;-83
2023/05/21 08:25:31;;;;;;;17.35;9.93;;;;;;;-145.69;98.15;52208.72;5056065;28;20214;-83
2023/05/21 08:27:58;;;;;;;12.18;9.65;;;;;;;-145.69;96.25;52216.66;5055896;28;20202;-84
2023/05/21 08:30:26;;;;;;;17.35;9.90;;;;;;;-145.69;99.71;52230.50;5055996;28;20243;-83
2023/05/21 08:32:53;;;;;;;14.68;10.13;;;;;;;-145.69;99.71;52238.44;5056353;28;20566;-85
2023/05/21 08:35:20;;;;;;;16.15;10.13;;;;;;;-145.69;100.00;52234.47;5056163;28;20200;-82
2023/05/21 08:37:46;;;;;;;16.08;10.18;;;;;;;-145.69;100.00;52214.66;5055688;28;20558;-82
2023/05/21 08:40:13;;;;;;;18.45;10.02;;;;;;;-145.69;100.00;52222.59;5055809;28;20227;-83
2023/05/21 08:42:43;;;;;;;14.57;9.82;;;;;;;-145.69;98.33;52200.81;5055633;28;20667;-84
2023/05/21 08:45:13;;;;;;;13.63;9.73;;;;;;;-145.69;96.89;52222.59;5055504;28;20249;-85
2023/05/21 08:47:43;;;;;;;17.20;10.57;;;;;;;-145.69;100.00;52246.34;5064809;28;20207;-83
2023/05/21 08:50:11;;;;;;;17.20;9.43;;;;;;;-145.69;99.34;52238.44;5075520;28;20258;-84
2023/05/21 08:52:38;;;;;;;13.30;10.07;;;;;;;-145.69;99.85;52230.50;5075419;28;20657;-82
2023/05/21 08:55:05;;;;;;;15.88;10.10;;;;;;;-145.69;98.26;52194.88;5075453;28;20199;-81
2023/05/21 08:57:32;;;;;;;19.92;10.57;;;;;;;-145.69;96.55;52226.53;5075502;28;20293;-81
2023/05/21 09:00:00;;;;;;;14.88;9.85;;;;;;;-145.69;97.58;52194.88;5075155;28;20238;-81
2023/05/21 09:02:29;;;;;;;15.20;9.98;;;;;;;-145.69;97.22;52204.75;5075311;28;20256;-83
2023/05/21 09:04:58;;;;;;;14.85;10.52;;;;;;;-145.69;99.93;52222.59;5075426;28;20206;-84
2023/05/21 09:07:27;;;;;;;14.77;9.90;;;;;;;-145.69;100.00;52224.56;5075223;28;20211;-82
2023/05/21 09:09:56;;;;;;;14.48;10.00;;;;;;;-145.69;96.11;52218.63;5061597;28;20682;-82
2023/05/21 09:12:24;;;;;;;17.48;10.35;;;;;;;-145.69;97.29;52204.75;5055037;28;20208;-83
2023/05/21 09:14:51;;;;;;;14.85;10.27;;;;;;;-145.69;99.39;52230.50;5046629;28;20558;-82
2023/05/21 09:17:19;;;;;;;15.75;10.27;;;;;;;-145.69;100.00;52226.53;5042215;28;20203;-84
2023/05/21 09:20:08;;;;;;;17.50;9.88;;;;;;;-145.69;97.93;52206.75;5054834;28;20250;-82
2023/05/21 09:22:34;;;;;;;14.20;9.35;;;;;;;-145.69;96.34;52196.84;5054809;28;20199;-83
2023/05/21 09:25:05;;;;;;;14.43;10.25;;;;;;;-145.69;100.00;52210.72;5054867;28;20210;-83
2023/05/21 09:27:32;;;;;;;14.25;9.93;;;;;;;-145.69;96.96;52184.97;5054977;28;20206;-82
2023/05/21 09:29:58;;;;;;;17.25;9.95;;;;;;;-145.69;97.21;52230.50;5053741;28;20215;-84
2023/05/21 09:32:25;;;;;;;15.15;9.70;;;;;;;-145.69;99.98;52224.56;5054771;28;20204;-83
2023/05/21 09:34:51;;;;;;;16.80;10.05;;;;;;;-145.69;100.00;52206.75;5054649;28;20206;-82
2023/05/21 09:37:19;;;;;;;14.93;9.90;;;;;;;-145.69;100.00;52230.50;5054590;28;20666;-83
2023/05/21 09:39:47;;;;;;;18.98;11.10;;;;;;;-145.69;100.00;52181.00;5065762;28;20537;-85
2023/05/21 09:42:15;;;;;;;19.52;10.50;;;;;;;-145.69;100.00;52198.81;5074634;28;20566;-83
2023/05/21 09:44:43;;;;;;;18.00;11.43;;;;;;;-145.69;97.58;52190.91;5074670;28;20248;-81
2023/05/21 09:47:09;;;;;;;18.38;10.40;;;;;;;-145.69;100.00;52190.91;5074183;28;20198;-83
2023/05/21 09:49:37;;;;;;;16.20;10.27;;;;;;;-145.69;99.53;52200.81;5074312;28;20589;-87
2023/05/21 09:52:04;;;;;;;14.98;9.80;;;;;;;-145.69;98.86;52206.75;5066953;28;20199;-82
2023/05/21 09:54:34;;;;;;;15.50;10.80;;;;;;;-145.69;98.50;52226.53;5054508;28;20206;-82
2023/05/21 09:57:01;;;;;;;21.55;10.80;;;;;;;-145.69;98.91;52226.53;5054167;28;20202;-83
2023/05/21 09:59:36;;;;;;;16.77;9.77;;;;;;;-145.69;99.15;52194.88;5053958;28;20689;-82
2023/05/21 10:02:02;;;;;;;14.48;9.77;;;;;;;-145.69;97.44;52198.81;5054127;28;20203;-84
2023/05/21 10:04:30;;;;;;;19.08;11.45;;;;;;;-145.69;99.85;52218.63;5053905;28;20203;-82
2023/05/21 10:06:59;;;;;;;15.48;10.15;;;;;;;-145.69;100.00;52190.91;5052895;28;20307;-82
2023/05/21 10:09:29;;;;;;;13.60;9.77;;;;;;;-145.69;96.33;52206.75;5061582;28;20562;-83
2023/05/21 10:11:58;;;;;;;15.85;9.93;;;;;;;-145.69;97.38;52177.03;5073985;28;20198;-83
2023/05/21 10:14:27;;;;;;;16.58;10.27;;;;;;;-145.69;96.82;52186.94;5073613;28;20199;-82
2023/05/21 10:16:55;;;;;;;14.38;9.27;;;;;;;-145.69;90.94;52192.88;5073405;28;20294;-84
2023/05/21 10:19:22;;;;;;;14.52;9.23;;;;;;;-145.69;91.56;52173.09;5073744;28;20575;-82
2023/05/21 10:21:49;;;;;;;16.52;9.63;;;;;;;-145.69;87.06;52163.19;5073731;28;20208;-82
2023/05/21 10:24:17;;;;;;;13.27;9.55;;;;;;;-145.69;89.96;52173.09;5073868;28;20199;-83
2023/05/21 10:26:45;;;;;;;14.82;9.93;;;;;;;-145.69;83.84;52196.84;5073591;28;20464;-84
2023/05/21 10:29:15;;;;;;;14.57;10.43;;;;;;;-145.69;87.09;52188.91;5073812;28;20211;-84
2023/05/21 10:31:48;;;;;;;16.73;10.82;;;;;;;-145.69;86.62;52167.13;5072923;28;20752;-83
2023/05/21 10:34:14;;;;;;;18.67;10.80;;;;;;;-145.69;88.07;52202.78;5054032;28;20613;-87
2023/05/21 10:36:43;;;;;;;20.58;12.45;;;;;;;-145.69;87.22;52228.53;5053603;28;20202;-81
2023/05/21 10:39:12;;;;;;;27.25;14.15;;;;;;;-145.69;85.41;52179.03;5053415;28;20234;-81
2023/05/21 10:41:46;;;;;;;15.63;9.63;;;;;;;-145.69;85.58;52171.09;5053113;28;20291;-82
2023/05/21 10:44:22;;;;;;;13.63;9.30;;;;;;;-145.69;82.52;52143.38;5053336;28;20210;-81
2023/05/21 10:47:30;;;;;;;11.43;8.60;;;;;;;-145.69;79.98;52153.28;5053477;28;20206;-81
2023/05/21 10:50:15;;;;;;;12.38;8.02;;;;;;;-145.69;78.32;52139.41;5037854;28;20238;-81
2023/05/21 10:53:00;;;;;;;15.20;9.45;;;;;;;-145.69;72.54;52139.41;5053165;28;20200;-82
2023/05/21 10:55:38;;;;;;;16.77;9.85;;;;;;;-145.69;75.52;52137.44;5053372;28;20210;-85
2023/05/21 10:58:36;;;;;;;16.05;9.68;;;;;;;-145.69;78.30;52161.19;5053437;28;20211;-86
2023/05/21 11:01:05;;;;;;;21.35;10.27;;;;;;;-145.69;79.84;52159.22;5053253;28;20769;-81
2023/05/21 11:03:33;;;;;;;16.15;10.18;;;;;;;-145.69;81.72;52159.22;5067814;28;20203;-84